sensor_id;sensor_type;location;lat;lon;timestamp;temperature;humidity
16814;DHT22;8524;57.650;11.926;2022-10-19T00:00:01;6.40;99.90
16814;DHT22;8524;57.650;11.926;2022-10-19T00:02:27;6.40;99.90
16814;DHT22;8524;57.650;11.926;2022-10-19T00:04:56;6.40;99.90
16814;DHT22;8524;57.650;11.926;2022-10-19T00:07:23;6.40;99.90
16814;DHT22;8524;57.650;11.926;2022-10-19T00:09:50;6.40;99.90
16814;DHT22;8524;57.650;11.926;2022-10-19T00:12:17;6.40;99.90
16814;DHT22;8524;57.650;11.926;2022-10-19T00:14:44;6.40;99.90
16814;DHT22;8524;57.650;11.926;2022-10-19T00:17:11;6.40;99.90
16814;DHT22;8524;57.650;11.926;2022-10-19T00:19:38;6.40;99.90
16814;DHT22;8524;57.650;11.926;2022-10-19T00:22:06;6.30;99.90
16814;DHT22;8524;57.650;11.926;2022-10-19T00:24:33;6.30;99.90
16814;DHT22;8524;57.650;11.926;2022-10-19T00:27:00;6.30;99.90
16814;DHT22;8524;57.650;11.926;2022-10-19T00:29:27;6.30;99.90
16814;DHT22;8524;57.650;11.926;2022-10-19T00:31:53;6.30;99.90
16814;DHT22;8524;57.650;11.926;2022-10-19T00:34:20;6.20;99.90
16814;DHT22;8524;57.650;11.926;2022-10-19T00:36:47;6.20;99.90
16814;DHT22;8524;57.650;11.926;2022-10-19T00:39:17;6.20;99.90
16814;DHT22;8524;57.650;11.926;2022-10-19T00:41:47;6.10;99.90
16814;DHT22;8524;57.650;11.926;2022-10-19T00:47:18;6.10;99.90
16814;DHT22;8524;57.650;11.926;2022-10-19T00:49:48;6.10;99.90
16814;DHT22;8524;57.650;11.926;2022-10-19T00:52:17;6.10;99.90
16814;DHT22;8524;57.650;11.926;2022-10-19T00:54:46;6.00;99.90
16814;DHT22;8524;57.650;11.926;2022-10-19T00:57:14;6.00;99.90
16814;DHT22;8524;57.650;11.926;2022-10-19T00:59:42;6.00;99.90
16814;DHT22;8524;57.650;11.926;2022-10-19T01:02:10;5.90;99.90
16814;DHT22;8524;57.650;11.926;2022-10-19T01:04:39;5.90;99.90
16814;DHT22;8524;57.650;11.926;2022-10-19T01:07:07;5.90;99.90
16814;DHT22;8524;57.650;11.926;2022-10-19T01:09:34;5.90;99.90
16814;DHT22;8524;57.650;11.926;2022-10-19T01:12:08;5.80;99.90
16814;DHT22;8524;57.650;11.926;2022-10-19T01:14:46;5.80;99.90
16814;DHT22;8524;57.650;11.926;2022-10-19T01:17:22;5.80;99.90
16814;DHT22;8524;57.650;11.926;2022-10-19T01:23:08;5.90;99.90
16814;DHT22;8524;57.650;11.926;2022-10-19T01:25:49;5.90;99.90
16814;DHT22;8524;57.650;11.926;2022-10-19T01:28:36;5.90;99.90
16814;DHT22;8524;57.650;11.926;2022-10-19T01:31:10;5.90;99.90
16814;DHT22;8524;57.650;11.926;2022-10-19T01:33:46;5.80;99.90
16814;DHT22;8524;57.650;11.926;2022-10-19T01:36:20;5.70;99.90
16814;DHT22;8524;57.650;11.926;2022-10-19T01:38:52;5.70;99.90
16814;DHT22;8524;57.650;11.926;2022-10-19T01:41:27;5.70;99.90
16814;DHT22;8524;57.650;11.926;2022-10-19T01:43:58;5.70;99.90
16814;DHT22;8524;57.650;11.926;2022-10-19T01:46:31;5.70;99.90
16814;DHT22;8524;57.650;11.926;2022-10-19T01:49:04;5.70;99.90
16814;DHT22;8524;57.650;11.926;2022-10-19T01:51:34;5.70;99.90
16814;DHT22;8524;57.650;11.926;2022-10-19T01:54:07;5.70;99.90
16814;DHT22;8524;57.650;11.926;2022-10-19T01:56:36;5.70;99.90
16814;DHT22;8524;57.650;11.926;2022-10-19T01:59:08;5.70;99.90
16814;DHT22;8524;57.650;11.926;2022-10-19T02:01:40;5.70;99.90
16814;DHT22;8524;57.650;11.926;2022-10-19T02:04:10;5.70;99.90
16814;DHT22;8524;57.650;11.926;2022-10-19T02:06:38;5.60;99.90
16814;DHT22;8524;57.650;11.926;2022-10-19T02:09:06;5.60;99.90
16814;DHT22;8524;57.650;11.926;2022-10-19T02:11:34;5.70;99.90
16814;DHT22;8524;57.650;11.926;2022-10-19T02:14:06;5.70;99.90
16814;DHT22;8524;57.650;11.926;2022-10-19T02:16:39;5.60;99.90
16814;DHT22;8524;57.650;11.926;2022-10-19T02:19:08;5.60;99.90
16814;DHT22;8524;57.650;11.926;2022-10-19T02:21:35;5.60;99.90
16814;DHT22;8524;57.650;11.926;2022-10-19T02:24:02;5.60;99.90
16814;DHT22;8524;57.650;11.926;2022-10-19T02:26:30;5.60;99.90
16814;DHT22;8524;57.650;11.926;2022-10-19T02:28:57;5.50;99.90
16814;DHT22;8524;57.650;11.926;2022-10-19T02:31:24;5.40;99.90
16814;DHT22;8524;57.650;11.926;2022-10-19T02:33:53;5.60;99.90
16814;DHT22;8524;57.650;11.926;2022-10-19T02:36:20;5.60;99.90
16814;DHT22;8524;57.650;11.926;2022-10-19T02:38:47;5.50;99.90
16814;DHT22;8524;57.650;11.926;2022-10-19T02:41:17;5.40;99.90
16814;DHT22;8524;57.650;11.926;2022-10-19T02:43:48;5.40;99.90
16814;DHT22;8524;57.650;11.926;2022-10-19T02:46:20;5.40;99.90
16814;DHT22;8524;57.650;11.926;2022-10-19T02:48:50;5.20;99.90
16814;DHT22;8524;57.650;11.926;2022-10-19T02:51:29;5.20;99.90
16814;DHT22;8524;57.650;11.926;2022-10-19T02:53:57;5.10;99.90
16814;DHT22;8524;57.650;11.926;2022-10-19T02:56:24;5.00;99.90
16814;DHT22;8524;57.650;11.926;2022-10-19T02:58:51;5.00;99.90
16814;DHT22;8524;57.650;11.926;2022-10-19T03:01:18;5.10;99.90
16814;DHT22;8524;57.650;11.926;2022-10-19T03:03:45;5.00;99.90
16814;DHT22;8524;57.650;11.926;2022-10-19T03:06:12;4.90;99.90
16814;DHT22;8524;57.650;11.926;2022-10-19T03:08:40;4.90;99.90
16814;DHT22;8524;57.650;11.926;2022-10-19T03:11:07;4.80;99.90
16814;DHT22;8524;57.650;11.926;2022-10-19T03:13:34;4.80;99.90
16814;DHT22;8524;57.650;11.926;2022-10-19T03:16:08;4.70;99.90
16814;DHT22;8524;57.650;11.926;2022-10-19T03:18:35;4.60;99.90
16814;DHT22;8524;57.650;11.926;2022-10-19T03:21:04;4.50;99.90
16814;DHT22;8524;57.650;11.926;2022-10-19T03:23:32;4.50;99.90
16814;DHT22;8524;57.650;11.926;2022-10-19T03:26:00;4.40;99.90
16814;DHT22;8524;57.650;11.926;2022-10-19T03:28:28;4.40;99.90
16814;DHT22;8524;57.650;11.926;2022-10-19T03:30:55;4.30;99.90
16814;DHT22;8524;57.650;11.926;2022-10-19T03:33:22;4.30;99.90
16814;DHT22;8524;57.650;11.926;2022-10-19T03:35:49;4.30;99.90
16814;DHT22;8524;57.650;11.926;2022-10-19T03:38:16;4.20;99.90
16814;DHT22;8524;57.650;11.926;2022-10-19T03:40:43;4.20;99.90
16814;DHT22;8524;57.650;11.926;2022-10-19T03:43:11;4.20;99.90
16814;DHT22;8524;57.650;11.926;2022-10-19T03:45:38;4.20;99.90
16814;DHT22;8524;57.650;11.926;2022-10-19T03:48:05;4.30;99.90
16814;DHT22;8524;57.650;11.926;2022-10-19T03:50:32;4.30;99.90
16814;DHT22;8524;57.650;11.926;2022-10-19T03:52:59;4.20;99.90
16814;DHT22;8524;57.650;11.926;2022-10-19T03:55:26;4.20;99.90
16814;DHT22;8524;57.650;11.926;2022-10-19T03:57:53;4.10;99.90
16814;DHT22;8524;57.650;11.926;2022-10-19T04:00:21;4.00;99.90
16814;DHT22;8524;57.650;11.926;2022-10-19T04:02:48;3.90;99.90
16814;DHT22;8524;57.650;11.926;2022-10-19T04:05:15;3.90;99.90
16814;DHT22;8524;57.650;11.926;2022-10-19T04:07:42;3.80;99.90
16814;DHT22;8524;57.650;11.926;2022-10-19T04:10:09;3.70;99.90
16814;DHT22;8524;57.650;11.926;2022-10-19T04:12:35;3.70;99.90
16814;DHT22;8524;57.650;11.926;2022-10-19T04:15:03;3.80;99.90
16814;DHT22;8524;57.650;11.926;2022-10-19T04:17:31;3.80;99.90
16814;DHT22;8524;57.650;11.926;2022-10-19T04:19:58;3.90;99.90
16814;DHT22;8524;57.650;11.926;2022-10-19T04:22:25;3.90;99.90
16814;DHT22;8524;57.650;11.926;2022-10-19T04:24:52;4.00;99.90
16814;DHT22;8524;57.650;11.926;2022-10-19T04:27:19;3.90;99.90
16814;DHT22;8524;57.650;11.926;2022-10-19T04:29:46;3.90;99.90
16814;DHT22;8524;57.650;11.926;2022-10-19T04:32:13;4.00;99.90
16814;DHT22;8524;57.650;11.926;2022-10-19T04:34:41;3.90;99.90
16814;DHT22;8524;57.650;11.926;2022-10-19T04:37:08;3.90;99.90
16814;DHT22;8524;57.650;11.926;2022-10-19T04:39:35;3.90;99.90
16814;DHT22;8524;57.650;11.926;2022-10-19T04:42:05;3.80;99.90
16814;DHT22;8524;57.650;11.926;2022-10-19T04:44:32;3.80;99.90
16814;DHT22;8524;57.650;11.926;2022-10-19T04:46:59;3.80;99.90
16814;DHT22;8524;57.650;11.926;2022-10-19T04:49:26;3.70;99.90
16814;DHT22;8524;57.650;11.926;2022-10-19T04:51:54;3.70;99.90
16814;DHT22;8524;57.650;11.926;2022-10-19T04:54:21;3.70;99.90
16814;DHT22;8524;57.650;11.926;2022-10-19T04:56:48;3.60;99.90
16814;DHT22;8524;57.650;11.926;2022-10-19T04:59:15;3.50;99.90
16814;DHT22;8524;57.650;11.926;2022-10-19T05:01:42;3.40;99.90
16814;DHT22;8524;57.650;11.926;2022-10-19T05:04:09;3.30;99.90
16814;DHT22;8524;57.650;11.926;2022-10-19T05:06:36;3.30;99.90
16814;DHT22;8524;57.650;11.926;2022-10-19T05:09:05;3.20;99.90
16814;DHT22;8524;57.650;11.926;2022-10-19T05:11:32;3.20;99.90
16814;DHT22;8524;57.650;11.926;2022-10-19T05:13:59;3.10;99.90
16814;DHT22;8524;57.650;11.926;2022-10-19T05:16:26;3.10;99.90
16814;DHT22;8524;57.650;11.926;2022-10-19T05:18:54;3.00;99.90
16814;DHT22;8524;57.650;11.926;2022-10-19T05:21:24;3.00;99.90
16814;DHT22;8524;57.650;11.926;2022-10-19T05:23:53;3.00;99.90
16814;DHT22;8524;57.650;11.926;2022-10-19T05:26:22;2.90;99.90
16814;DHT22;8524;57.650;11.926;2022-10-19T05:28:51;2.90;99.90
16814;DHT22;8524;57.650;11.926;2022-10-19T05:31:22;2.90;99.90
16814;DHT22;8524;57.650;11.926;2022-10-19T05:33:49;2.80;99.90
16814;DHT22;8524;57.650;11.926;2022-10-19T05:36:17;2.70;99.90
16814;DHT22;8524;57.650;11.926;2022-10-19T05:38:45;2.70;99.90
16814;DHT22;8524;57.650;11.926;2022-10-19T05:41:13;2.60;99.90
16814;DHT22;8524;57.650;11.926;2022-10-19T05:43:42;2.60;99.90
16814;DHT22;8524;57.650;11.926;2022-10-19T05:46:10;2.60;99.90
16814;DHT22;8524;57.650;11.926;2022-10-19T05:48:38;2.60;99.90
16814;DHT22;8524;57.650;11.926;2022-10-19T05:51:07;2.50;99.90
16814;DHT22;8524;57.650;11.926;2022-10-19T05:53:34;2.50;99.90
16814;DHT22;8524;57.650;11.926;2022-10-19T05:56:03;2.50;99.90
16814;DHT22;8524;57.650;11.926;2022-10-19T05:58:31;2.50;99.90
16814;DHT22;8524;57.650;11.926;2022-10-19T06:01:00;2.50;99.90
16814;DHT22;8524;57.650;11.926;2022-10-19T06:03:28;2.50;99.90
16814;DHT22;8524;57.650;11.926;2022-10-19T06:05:56;2.40;99.90
16814;DHT22;8524;57.650;11.926;2022-10-19T06:08:23;2.40;99.90
16814;DHT22;8524;57.650;11.926;2022-10-19T06:10:51;2.40;99.90
16814;DHT22;8524;57.650;11.926;2022-10-19T06:13:18;2.40;99.90
16814;DHT22;8524;57.650;11.926;2022-10-19T06:15:49;2.40;99.90
16814;DHT22;8524;57.650;11.926;2022-10-19T06:18:18;2.40;99.90
16814;DHT22;8524;57.650;11.926;2022-10-19T06:20:50;2.30;99.90
16814;DHT22;8524;57.650;11.926;2022-10-19T06:23:17;2.30;99.90
16814;DHT22;8524;57.650;11.926;2022-10-19T06:25:44;2.40;99.90
16814;DHT22;8524;57.650;11.926;2022-10-19T06:28:11;2.40;99.90
16814;DHT22;8524;57.650;11.926;2022-10-19T06:30:38;2.40;99.90
16814;DHT22;8524;57.650;11.926;2022-10-19T06:33:06;2.40;99.90
16814;DHT22;8524;57.650;11.926;2022-10-19T06:35:35;2.50;99.90
16814;DHT22;8524;57.650;11.926;2022-10-19T06:38:02;2.40;99.90
16814;DHT22;8524;57.650;11.926;2022-10-19T06:40:29;2.40;99.90
16814;DHT22;8524;57.650;11.926;2022-10-19T06:42:56;2.40;99.90
16814;DHT22;8524;57.650;11.926;2022-10-19T06:45:23;2.50;99.90
16814;DHT22;8524;57.650;11.926;2022-10-19T06:47:51;2.50;99.90
16814;DHT22;8524;57.650;11.926;2022-10-19T06:50:18;2.50;99.90
16814;DHT22;8524;57.650;11.926;2022-10-19T06:52:46;2.60;99.90
16814;DHT22;8524;57.650;11.926;2022-10-19T06:55:13;2.50;99.90
16814;DHT22;8524;57.650;11.926;2022-10-19T06:57:42;2.50;99.90
16814;DHT22;8524;57.650;11.926;2022-10-19T07:00:10;2.60;99.90
16814;DHT22;8524;57.650;11.926;2022-10-19T07:02:38;2.60;99.90
16814;DHT22;8524;57.650;11.926;2022-10-19T07:05:06;2.70;99.90
16814;DHT22;8524;57.650;11.926;2022-10-19T07:07:33;2.60;99.90
16814;DHT22;8524;57.650;11.926;2022-10-19T07:10:02;2.70;99.90
16814;DHT22;8524;57.650;11.926;2022-10-19T07:12:29;2.90;99.90
16814;DHT22;8524;57.650;11.926;2022-10-19T07:14:56;2.90;99.90
16814;DHT22;8524;57.650;11.926;2022-10-19T07:17:23;3.00;99.90
16814;DHT22;8524;57.650;11.926;2022-10-19T07:19:50;3.10;99.90
16814;DHT22;8524;57.650;11.926;2022-10-19T07:22:17;3.20;99.90
16814;DHT22;8524;57.650;11.926;2022-10-19T07:24:44;3.40;99.90
16814;DHT22;8524;57.650;11.926;2022-10-19T07:27:13;3.50;99.90
16814;DHT22;8524;57.650;11.926;2022-10-19T07:29:40;3.50;99.90
16814;DHT22;8524;57.650;11.926;2022-10-19T07:32:07;3.70;99.90
16814;DHT22;8524;57.650;11.926;2022-10-19T07:34:35;3.70;99.90
16814;DHT22;8524;57.650;11.926;2022-10-19T07:37:02;3.80;99.90
16814;DHT22;8524;57.650;11.926;2022-10-19T07:39:29;3.90;99.90
16814;DHT22;8524;57.650;11.926;2022-10-19T07:41:56;3.90;99.90
16814;DHT22;8524;57.650;11.926;2022-10-19T07:44:25;4.00;99.90
16814;DHT22;8524;57.650;11.926;2022-10-19T07:46:52;4.00;99.90
16814;DHT22;8524;57.650;11.926;2022-10-19T07:49:19;4.10;99.90
16814;DHT22;8524;57.650;11.926;2022-10-19T07:51:46;4.10;99.90
16814;DHT22;8524;57.650;11.926;2022-10-19T07:54:18;4.20;99.90
16814;DHT22;8524;57.650;11.926;2022-10-19T07:56:45;4.20;99.90
16814;DHT22;8524;57.650;11.926;2022-10-19T07:59:12;4.20;99.90
16814;DHT22;8524;57.650;11.926;2022-10-19T08:01:45;4.30;99.90
16814;DHT22;8524;57.650;11.926;2022-10-19T08:04:13;4.40;99.90
16814;DHT22;8524;57.650;11.926;2022-10-19T08:06:41;4.50;99.90
16814;DHT22;8524;57.650;11.926;2022-10-19T08:09:09;4.50;99.90
16814;DHT22;8524;57.650;11.926;2022-10-19T08:11:36;4.60;99.90
16814;DHT22;8524;57.650;11.926;2022-10-19T08:14:03;4.70;99.90
16814;DHT22;8524;57.650;11.926;2022-10-19T08:16:31;4.70;99.90
16814;DHT22;8524;57.650;11.926;2022-10-19T08:19:01;4.80;99.90
16814;DHT22;8524;57.650;11.926;2022-10-19T08:21:29;4.80;99.90
16814;DHT22;8524;57.650;11.926;2022-10-19T08:23:56;4.90;99.90
16814;DHT22;8524;57.650;11.926;2022-10-19T08:26:24;5.00;99.90
16814;DHT22;8524;57.650;11.926;2022-10-19T08:28:51;5.00;99.90
16814;DHT22;8524;57.650;11.926;2022-10-19T08:31:20;5.10;99.90
16814;DHT22;8524;57.650;11.926;2022-10-19T08:33:48;5.20;99.90
16814;DHT22;8524;57.650;11.926;2022-10-19T08:36:17;5.30;99.90
16814;DHT22;8524;57.650;11.926;2022-10-19T08:38:46;5.40;99.90
16814;DHT22;8524;57.650;11.926;2022-10-19T08:41:31;5.50;99.90
16814;DHT22;8524;57.650;11.926;2022-10-19T08:47:10;5.70;99.90
16814;DHT22;8524;57.650;11.926;2022-10-19T08:49:40;5.80;99.90
16814;DHT22;8524;57.650;11.926;2022-10-19T08:52:13;5.90;99.90
16814;DHT22;8524;57.650;11.926;2022-10-19T08:54:45;6.00;99.90
16814;DHT22;8524;57.650;11.926;2022-10-19T08:57:27;6.10;99.90
16814;DHT22;8524;57.650;11.926;2022-10-19T09:00:00;6.20;99.90
16814;DHT22;8524;57.650;11.926;2022-10-19T09:02:41;6.40;99.90
16814;DHT22;8524;57.650;11.926;2022-10-19T09:05:15;6.50;99.90
16814;DHT22;8524;57.650;11.926;2022-10-19T09:07:47;6.60;99.90
16814;DHT22;8524;57.650;11.926;2022-10-19T09:10:21;6.80;99.90
16814;DHT22;8524;57.650;11.926;2022-10-19T09:12:52;6.90;99.90
16814;DHT22;8524;57.650;11.926;2022-10-19T09:15:26;7.10;99.90
16814;DHT22;8524;57.650;11.926;2022-10-19T09:17:54;7.30;99.90
16814;DHT22;8524;57.650;11.926;2022-10-19T09:20:24;7.30;99.90
16814;DHT22;8524;57.650;11.926;2022-10-19T09:23:02;7.50;99.90
16814;DHT22;8524;57.650;11.926;2022-10-19T09:25:30;7.70;99.90
16814;DHT22;8524;57.650;11.926;2022-10-19T09:28:05;7.70;99.90
16814;DHT22;8524;57.650;11.926;2022-10-19T09:30:37;7.90;99.90
16814;DHT22;8524;57.650;11.926;2022-10-19T09:33:13;8.00;99.90
16814;DHT22;8524;57.650;11.926;2022-10-19T09:35:43;8.10;99.90
16814;DHT22;8524;57.650;11.926;2022-10-19T09:38:14;8.10;99.90
16814;DHT22;8524;57.650;11.926;2022-10-19T09:40:43;8.30;99.90
16814;DHT22;8524;57.650;11.926;2022-10-19T09:43:10;8.30;99.90
16814;DHT22;8524;57.650;11.926;2022-10-19T09:45:49;8.40;99.90
16814;DHT22;8524;57.650;11.926;2022-10-19T09:48:24;8.60;99.90
16814;DHT22;8524;57.650;11.926;2022-10-19T09:50:55;8.70;99.90
16814;DHT22;8524;57.650;11.926;2022-10-19T09:53:25;8.80;99.90
16814;DHT22;8524;57.650;11.926;2022-10-19T09:55:57;8.90;99.90
16814;DHT22;8524;57.650;11.926;2022-10-19T09:58:27;8.80;99.90
16814;DHT22;8524;57.650;11.926;2022-10-19T10:00:55;8.80;99.90
16814;DHT22;8524;57.650;11.926;2022-10-19T10:03:26;9.00;99.90
16814;DHT22;8524;57.650;11.926;2022-10-19T10:05:55;9.10;99.90
16814;DHT22;8524;57.650;11.926;2022-10-19T10:08:26;9.20;99.90
16814;DHT22;8524;57.650;11.926;2022-10-19T10:11:10;9.30;99.90
16814;DHT22;8524;57.650;11.926;2022-10-19T10:13:39;9.30;99.90
16814;DHT22;8524;57.650;11.926;2022-10-19T10:16:09;9.30;99.90
16814;DHT22;8524;57.650;11.926;2022-10-19T10:18:43;9.40;99.90
16814;DHT22;8524;57.650;11.926;2022-10-19T10:21:14;9.40;99.90
16814;DHT22;8524;57.650;11.926;2022-10-19T10:23:58;9.60;99.90
16814;DHT22;8524;57.650;11.926;2022-10-19T10:26:25;9.50;99.90
16814;DHT22;8524;57.650;11.926;2022-10-19T10:28:53;9.70;99.90
16814;DHT22;8524;57.650;11.926;2022-10-19T10:31:23;9.80;99.90
16814;DHT22;8524;57.650;11.926;2022-10-19T10:33:55;9.80;99.90
16814;DHT22;8524;57.650;11.926;2022-10-19T10:36:27;9.90;99.90
16814;DHT22;8524;57.650;11.926;2022-10-19T10:39:02;9.80;99.90
16814;DHT22;8524;57.650;11.926;2022-10-19T10:41:35;10.00;99.90
16814;DHT22;8524;57.650;11.926;2022-10-19T10:44:07;10.00;99.90
16814;DHT22;8524;57.650;11.926;2022-10-19T10:46:36;10.10;99.90
16814;DHT22;8524;57.650;11.926;2022-10-19T10:49:16;10.20;99.90
16814;DHT22;8524;57.650;11.926;2022-10-19T10:51:49;10.40;99.90
16814;DHT22;8524;57.650;11.926;2022-10-19T10:54:20;10.40;99.90
16814;DHT22;8524;57.650;11.926;2022-10-19T10:57:09;10.50;99.90
16814;DHT22;8524;57.650;11.926;2022-10-19T10:59:44;10.60;99.90
16814;DHT22;8524;57.650;11.926;2022-10-19T11:02:22;10.70;99.90
16814;DHT22;8524;57.650;11.926;2022-10-19T11:04:53;10.60;99.90
16814;DHT22;8524;57.650;11.926;2022-10-19T11:07:23;10.80;99.90
16814;DHT22;8524;57.650;11.926;2022-10-19T11:09:56;11.00;99.90
16814;DHT22;8524;57.650;11.926;2022-10-19T11:12:32;10.80;99.90
16814;DHT22;8524;57.650;11.926;2022-10-19T11:15:05;10.90;99.90
16814;DHT22;8524;57.650;11.926;2022-10-19T11:17:35;10.90;99.90
16814;DHT22;8524;57.650;11.926;2022-10-19T11:20:05;11.10;99.90
16814;DHT22;8524;57.650;11.926;2022-10-19T11:22:37;10.80;99.90
16814;DHT22;8524;57.650;11.926;2022-10-19T11:25:20;10.80;99.90
16814;DHT22;8524;57.650;11.926;2022-10-19T11:27:56;10.80;99.90
16814;DHT22;8524;57.650;11.926;2022-10-19T11:30:28;10.80;99.90
16814;DHT22;8524;57.650;11.926;2022-10-19T11:33:00;10.80;99.90
16814;DHT22;8524;57.650;11.926;2022-10-19T11:35:41;10.70;99.90
16814;DHT22;8524;57.650;11.926;2022-10-19T11:38:20;10.70;99.90
16814;DHT22;8524;57.650;11.926;2022-10-19T11:40:59;10.70;99.90
16814;DHT22;8524;57.650;11.926;2022-10-19T11:43:32;10.80;99.90
16814;DHT22;8524;57.650;11.926;2022-10-19T11:46:07;10.90;99.90
16814;DHT22;8524;57.650;11.926;2022-10-19T11:48:47;11.00;99.90
16814;DHT22;8524;57.650;11.926;2022-10-19T11:51:20;11.20;99.90
16814;DHT22;8524;57.650;11.926;2022-10-19T11:53:56;11.10;99.90
16814;DHT22;8524;57.650;11.926;2022-10-19T11:56:32;11.10;99.90
16814;DHT22;8524;57.650;11.926;2022-10-19T11:59:05;10.90;99.90
16814;DHT22;8524;57.650;11.926;2022-10-19T12:01:49;10.90;99.90
16814;DHT22;8524;57.650;11.926;2022-10-19T12:04:34;10.90;99.90
16814;DHT22;8524;57.650;11.926;2022-10-19T12:07:15;11.10;99.90
16814;DHT22;8524;57.650;11.926;2022-10-19T12:09:50;11.10;99.90
16814;DHT22;8524;57.650;11.926;2022-10-19T12:12:24;11.20;99.90
16814;DHT22;8524;57.650;11.926;2022-10-19T12:15:03;11.10;99.90
16814;DHT22;8524;57.650;11.926;2022-10-19T12:17:35;11.10;99.90
16814;DHT22;8524;57.650;11.926;2022-10-19T12:20:07;11.10;99.90
16814;DHT22;8524;57.650;11.926;2022-10-19T12:22:35;11.10;99.90
16814;DHT22;8524;57.650;11.926;2022-10-19T12:25:03;11.10;99.90
16814;DHT22;8524;57.650;11.926;2022-10-19T12:27:34;11.20;99.90
16814;DHT22;8524;57.650;11.926;2022-10-19T12:30:04;11.10;99.90
16814;DHT22;8524;57.650;11.926;2022-10-19T12:32:38;11.00;99.90
16814;DHT22;8524;57.650;11.926;2022-10-19T12:35:20;11.00;99.90
16814;DHT22;8524;57.650;11.926;2022-10-19T12:37:55;11.00;99.90
16814;DHT22;8524;57.650;11.926;2022-10-19T12:40:30;10.90;99.90
16814;DHT22;8524;57.650;11.926;2022-10-19T12:43:04;10.80;99.90
16814;DHT22;8524;57.650;11.926;2022-10-19T12:45:34;10.60;99.90
16814;DHT22;8524;57.650;11.926;2022-10-19T12:48:18;10.60;99.90
16814;DHT22;8524;57.650;11.926;2022-10-19T12:51:01;10.70;99.90
16814;DHT22;8524;57.650;11.926;2022-10-19T12:53:30;10.70;99.90
16814;DHT22;8524;57.650;11.926;2022-10-19T12:56:01;10.80;99.90
16814;DHT22;8524;57.650;11.926;2022-10-19T12:58:35;10.90;99.90
16814;DHT22;8524;57.650;11.926;2022-10-19T13:01:04;11.00;99.90
16814;DHT22;8524;57.650;11.926;2022-10-19T13:03:33;10.90;99.90
16814;DHT22;8524;57.650;11.926;2022-10-19T13:06:05;10.90;99.90
16814;DHT22;8524;57.650;11.926;2022-10-19T13:08:40;10.90;99.90
16814;DHT22;8524;57.650;11.926;2022-10-19T13:11:09;10.90;99.90
16814;DHT22;8524;57.650;11.926;2022-10-19T13:13:58;10.90;99.90
16814;DHT22;8524;57.650;11.926;2022-10-19T13:16:54;10.80;99.90
16814;DHT22;8524;57.650;11.926;2022-10-19T13:19:21;10.90;99.90
16814;DHT22;8524;57.650;11.926;2022-10-19T13:31:21;10.80;99.90
16814;DHT22;8524;57.650;11.926;2022-10-19T13:33:53;10.80;99.90
16814;DHT22;8524;57.650;11.926;2022-10-19T13:36:21;10.90;99.90
16814;DHT22;8524;57.650;11.926;2022-10-19T13:39:13;11.00;99.90
16814;DHT22;8524;57.650;11.926;2022-10-19T13:41:49;11.10;99.90
16814;DHT22;8524;57.650;11.926;2022-10-19T13:44:20;11.10;99.90
16814;DHT22;8524;57.650;11.926;2022-10-19T13:47:11;11.10;99.90
16814;DHT22;8524;57.650;11.926;2022-10-19T13:55:57;11.00;99.90
16814;DHT22;8524;57.650;11.926;2022-10-19T14:01:42;11.00;99.90
16814;DHT22;8524;57.650;11.926;2022-10-19T14:04:20;10.90;99.90
16814;DHT22;8524;57.650;11.926;2022-10-19T14:06:53;10.80;99.90
16814;DHT22;8524;57.650;11.926;2022-10-19T14:09:43;10.90;99.90
16814;DHT22;8524;57.650;11.926;2022-10-19T14:12:17;10.80;99.90
16814;DHT22;8524;57.650;11.926;2022-10-19T14:14:46;10.70;99.90
16814;DHT22;8524;57.650;11.926;2022-10-19T14:17:17;10.80;99.90
16814;DHT22;8524;57.650;11.926;2022-10-19T14:19:47;10.60;99.90
16814;DHT22;8524;57.650;11.926;2022-10-19T14:22:26;10.50;99.90
16814;DHT22;8524;57.650;11.926;2022-10-19T14:25:06;10.40;99.90
16814;DHT22;8524;57.650;11.926;2022-10-19T14:27:42;10.50;99.90
16814;DHT22;8524;57.650;11.926;2022-10-19T14:30:20;10.50;99.90
16814;DHT22;8524;57.650;11.926;2022-10-19T14:32:47;10.30;99.90
16814;DHT22;8524;57.650;11.926;2022-10-19T14:35:20;10.30;99.90
16814;DHT22;8524;57.650;11.926;2022-10-19T14:37:47;10.30;99.90
16814;DHT22;8524;57.650;11.926;2022-10-19T14:40:26;10.30;99.90
16814;DHT22;8524;57.650;11.926;2022-10-19T14:42:54;10.40;99.90
16814;DHT22;8524;57.650;11.926;2022-10-19T14:45:24;10.40;99.90
16814;DHT22;8524;57.650;11.926;2022-10-19T14:47:53;10.30;99.90
16814;DHT22;8524;57.650;11.926;2022-10-19T14:50:25;10.20;99.90
16814;DHT22;8524;57.650;11.926;2022-10-19T14:52:56;10.20;99.90
16814;DHT22;8524;57.650;11.926;2022-10-19T14:55:28;10.20;99.90
16814;DHT22;8524;57.650;11.926;2022-10-19T14:57:57;10.20;99.90
16814;DHT22;8524;57.650;11.926;2022-10-19T15:00:24;10.10;99.90
16814;DHT22;8524;57.650;11.926;2022-10-19T15:02:57;10.00;99.90
16814;DHT22;8524;57.650;11.926;2022-10-19T15:05:29;9.90;99.90
16814;DHT22;8524;57.650;11.926;2022-10-19T15:07:57;10.00;99.90
16814;DHT22;8524;57.650;11.926;2022-10-19T15:10:39;9.80;99.90
16814;DHT22;8524;57.650;11.926;2022-10-19T15:13:10;9.70;99.90
16814;DHT22;8524;57.650;11.926;2022-10-19T15:15:40;9.60;99.90
16814;DHT22;8524;57.650;11.926;2022-10-19T15:18:14;9.50;99.90
16814;DHT22;8524;57.650;11.926;2022-10-19T15:20:43;9.40;99.90
16814;DHT22;8524;57.650;11.926;2022-10-19T15:23:33;9.30;99.90
16814;DHT22;8524;57.650;11.926;2022-10-19T15:26:11;9.20;99.90
16814;DHT22;8524;57.650;11.926;2022-10-19T15:28:39;9.10;99.90
16814;DHT22;8524;57.650;11.926;2022-10-19T15:31:13;9.00;99.90
16814;DHT22;8524;57.650;11.926;2022-10-19T15:33:42;8.90;99.90
16814;DHT22;8524;57.650;11.926;2022-10-19T15:36:11;8.70;99.90
16814;DHT22;8524;57.650;11.926;2022-10-19T15:38:42;8.60;99.90
16814;DHT22;8524;57.650;11.926;2022-10-19T15:41:20;8.50;99.90
16814;DHT22;8524;57.650;11.926;2022-10-19T15:43:51;8.40;99.90
16814;DHT22;8524;57.650;11.926;2022-10-19T15:46:33;8.20;99.90
16814;DHT22;8524;57.650;11.926;2022-10-19T15:49:04;8.10;99.90
16814;DHT22;8524;57.650;11.926;2022-10-19T15:51:51;8.10;99.90
16814;DHT22;8524;57.650;11.926;2022-10-19T15:54:18;7.90;99.90
16814;DHT22;8524;57.650;11.926;2022-10-19T15:56:46;7.80;99.90
16814;DHT22;8524;57.650;11.926;2022-10-19T15:59:18;7.80;99.90
16814;DHT22;8524;57.650;11.926;2022-10-19T16:01:46;7.70;99.90
16814;DHT22;8524;57.650;11.926;2022-10-19T16:04:14;7.60;99.90
16814;DHT22;8524;57.650;11.926;2022-10-19T16:06:43;7.50;99.90
16814;DHT22;8524;57.650;11.926;2022-10-19T16:09:18;7.50;99.90
16814;DHT22;8524;57.650;11.926;2022-10-19T16:11:46;7.40;99.90
16814;DHT22;8524;57.650;11.926;2022-10-19T16:14:13;7.30;99.90
16814;DHT22;8524;57.650;11.926;2022-10-19T16:16:40;7.10;99.90
16814;DHT22;8524;57.650;11.926;2022-10-19T16:19:09;7.00;99.90
16814;DHT22;8524;57.650;11.926;2022-10-19T16:21:36;6.90;99.90
16814;DHT22;8524;57.650;11.926;2022-10-19T16:24:03;6.80;99.90
16814;DHT22;8524;57.650;11.926;2022-10-19T16:26:32;6.70;99.90
16814;DHT22;8524;57.650;11.926;2022-10-19T16:28:59;6.60;99.90
16814;DHT22;8524;57.650;11.926;2022-10-19T16:31:27;6.50;99.90